createdAt,value
2019-03-04T00:01:20.453Z,1.22
2019-03-04T00:05:25.280Z,1.27
2019-03-04T00:09:30.211Z,1.12
2019-03-04T00:13:35.229Z,1.20
2019-03-04T00:17:40.153Z,1.27
2019-03-04T00:21:45.212Z,1.42
2019-03-04T00:25:51.812Z,1.10
2019-03-04T00:29:57.745Z,1.07
2019-03-04T00:34:03.737Z,1.30
2019-03-04T00:38:08.644Z,1.25
2019-03-04T00:42:14.305Z,1.00
2019-03-04T00:46:19.223Z,1.35
2019-03-04T00:50:25.102Z,0.98
2019-03-04T00:54:30.041Z,1.10
2019-03-04T00:58:34.860Z,1.30
2019-03-04T01:02:40.101Z,1.10
2019-03-04T01:06:45.040Z,1.20
2019-03-04T01:10:50.049Z,1.00
2019-03-04T01:14:54.921Z,0.90
2019-03-04T01:18:59.824Z,1.12
2019-03-04T01:23:04.891Z,1.25
2019-03-04T01:27:09.796Z,1.20
2019-03-04T01:31:14.865Z,1.37
2019-03-04T01:35:20.183Z,1.00
2019-03-04T01:39:25.011Z,1.10
2019-03-04T01:43:30.389Z,1.10
2019-03-04T01:47:35.308Z,0.98
2019-03-04T01:51:40.254Z,0.70
2019-03-04T01:55:45.128Z,1.10
2019-03-04T01:59:50.029Z,0.82
2019-03-04T02:03:56.045Z,0.85
2019-03-04T02:08:00.960Z,0.80
2019-03-04T02:12:05.956Z,0.90
2019-03-04T02:16:10.877Z,0.70
2019-03-04T02:20:16.879Z,0.90
2019-03-04T02:24:24.084Z,0.80
2019-03-04T02:28:28.931Z,0.65
2019-03-04T02:32:33.798Z,0.82
2019-03-04T02:36:38.726Z,0.93
2019-03-04T02:40:43.565Z,0.88
2019-03-04T02:44:48.469Z,0.80
2019-03-04T02:48:53.229Z,1.00
2019-03-04T02:52:58.502Z,0.88
2019-03-04T02:57:03.428Z,0.80
2019-03-04T03:01:08.465Z,0.70
2019-03-04T03:05:13.721Z,0.90
2019-03-04T03:09:18.624Z,0.90
2019-03-04T03:13:23.561Z,0.95
2019-03-04T03:17:28.477Z,0.98
2019-03-04T03:21:33.469Z,0.95
2019-03-04T03:25:38.391Z,0.85
2019-03-04T03:29:43.322Z,0.65
2019-03-04T03:33:48.306Z,0.70
2019-03-04T03:37:53.231Z,0.60
2019-03-04T03:41:58.572Z,0.80
2019-03-04T03:46:03.497Z,0.90
2019-03-04T03:50:09.262Z,0.90
2019-03-04T03:54:14.728Z,0.85
2019-03-04T03:58:19.642Z,0.90
2019-03-04T04:02:24.727Z,0.53
2019-03-04T04:06:29.657Z,0.82
2019-03-04T04:10:34.567Z,0.78
2019-03-04T04:14:39.475Z,0.90
2019-03-04T04:18:44.393Z,0.70
2019-03-04T04:22:49.577Z,0.98
2019-03-04T04:26:54.567Z,0.90
2019-03-04T04:30:59.524Z,1.02
2019-03-04T04:35:04.465Z,0.80
2019-03-04T04:39:09.386Z,0.75
2019-03-04T04:43:14.337Z,1.07
2019-03-04T04:47:19.247Z,1.00
2019-03-04T04:51:24.236Z,0.70
2019-03-04T04:55:29.177Z,0.90
2019-03-04T04:59:34.082Z,0.88
2019-03-04T05:03:39.185Z,0.72
2019-03-04T05:07:44.404Z,0.90
2019-03-04T05:11:49.481Z,0.90
2019-03-04T05:15:54.379Z,1.10
2019-03-04T05:19:59.616Z,0.78
2019-03-04T05:24:04.585Z,0.93
2019-03-04T05:28:09.432Z,1.10
2019-03-04T05:32:14.594Z,0.80
2019-03-04T05:36:20.763Z,0.85
2019-03-04T05:40:25.690Z,1.30
2019-03-04T05:44:31.032Z,0.90
2019-03-04T05:48:35.940Z,0.78
2019-03-04T05:52:40.959Z,0.90
2019-03-04T05:56:45.709Z,1.00
2019-03-04T06:01:17.990Z,1.32
2019-03-04T06:05:22.994Z,1.10
2019-03-04T06:09:27.929Z,0.90
2019-03-04T06:13:32.858Z,1.10
2019-03-04T06:17:37.731Z,1.10
2019-03-04T06:21:42.847Z,0.85
2019-03-04T06:25:47.772Z,1.10
2019-03-04T06:29:52.640Z,1.12
2019-03-04T06:33:57.636Z,1.50
2019-03-04T06:38:02.473Z,1.37
2019-03-04T06:42:07.516Z,1.47
2019-03-04T06:46:12.433Z,1.20
2019-03-04T06:50:45.583Z,1.32
2019-03-04T06:55:15.844Z,1.32
2019-03-04T06:59:46.730Z,1.40
2019-03-04T07:04:00.373Z,1.20
2019-03-04T07:08:05.332Z,1.30
2019-03-04T07:12:10.157Z,1.67
2019-03-04T07:16:14.997Z,1.50
2019-03-04T07:20:19.909Z,1.20
2019-03-04T07:24:25.009Z,1.47
2019-03-04T07:28:29.915Z,1.40
2019-03-04T07:32:34.818Z,1.30
2019-03-04T07:36:39.725Z,1.62
2019-03-04T07:40:44.644Z,1.40
2019-03-04T07:44:49.476Z,1.45
2019-03-04T07:48:54.315Z,1.42
2019-03-04T07:53:00.309Z,1.70
2019-03-04T07:57:05.216Z,1.30
2019-03-04T08:01:10.197Z,1.52
2019-03-04T08:05:15.105Z,1.17
2019-03-04T08:09:49.378Z,1.55
2019-03-04T08:13:58.384Z,1.47
2019-03-04T08:18:03.353Z,1.32
2019-03-04T08:22:08.280Z,1.32
2019-03-04T08:26:13.477Z,1.20
2019-03-04T08:30:20.345Z,1.80
2019-03-04T08:34:30.976Z,1.30
2019-03-04T08:38:32.149Z,1.45
2019-03-04T08:42:37.029Z,1.62
2019-03-04T08:46:41.940Z,1.35
2019-03-04T08:50:46.948Z,1.10
2019-03-04T08:54:51.903Z,1.20
2019-03-04T08:58:57.141Z,1.52
2019-03-04T09:03:02.137Z,1.40
2019-03-04T09:07:07.062Z,1.57
2019-03-04T09:11:11.971Z,1.40
2019-03-04T09:15:17.392Z,1.35
2019-03-04T09:19:22.879Z,1.70
2019-03-04T09:23:27.984Z,1.67
2019-03-04T09:27:32.832Z,1.40
2019-03-04T09:31:38.950Z,1.30
2019-03-04T09:35:43.889Z,1.20
2019-03-04T09:39:49.117Z,1.20
2019-03-04T09:43:54.504Z,1.07
2019-03-04T09:47:59.544Z,1.12
2019-03-04T09:52:05.277Z,1.20
2019-03-04T09:56:10.325Z,1.25
2019-03-04T10:00:49.058Z,1.30
2019-03-04T10:05:35.388Z,1.37
2019-03-04T10:09:54.927Z,1.40
2019-03-04T10:14:24.352Z,1.50
2019-03-04T10:19:28.660Z,1.35
2019-03-04T10:24:23.599Z,1.62
2019-03-04T10:29:25.890Z,1.37
2019-03-04T10:34:02.581Z,1.60
2019-03-04T10:38:22.838Z,1.72
2019-03-04T10:43:03.747Z,1.52
2019-03-04T10:47:09.506Z,1.72
2019-03-04T10:51:15.558Z,1.80
2019-03-04T10:55:25.133Z,1.77
2019-03-04T10:59:30.164Z,1.82
2019-03-04T11:03:35.167Z,1.47
2019-03-04T11:07:40.221Z,1.80
2019-03-04T11:11:45.144Z,1.70
2019-03-04T11:15:50.101Z,1.75
2019-03-04T11:19:55.027Z,2.00
2019-03-04T11:24:00.000Z,1.80
2019-03-04T11:28:04.963Z,1.92
2019-03-04T11:32:09.949Z,1.72
2019-03-04T11:36:14.884Z,1.80
2019-03-04T11:40:28.553Z,1.40
2019-03-04T11:44:33.901Z,1.50
2019-03-04T11:48:38.802Z,1.75
2019-03-04T11:52:44.103Z,1.40
2019-03-04T11:56:49.098Z,1.20
2019-03-04T12:00:59.344Z,1.10
2019-03-04T12:05:06.787Z,0.60
2019-03-04T12:09:16.736Z,0.60
2019-03-04T12:13:21.773Z,0.80
2019-03-04T12:17:26.672Z,0.62
2019-03-04T12:21:31.661Z,0.40
2019-03-04T12:25:36.644Z,0.50
2019-03-04T12:29:41.492Z,0.50
2019-03-04T12:33:46.528Z,0.68
2019-03-04T12:37:52.590Z,0.47
2019-03-04T12:41:57.578Z,0.75
2019-03-04T12:46:02.480Z,0.57
2019-03-04T12:50:10.472Z,1.07
2019-03-04T12:54:15.395Z,0.33
2019-03-04T12:58:20.340Z,0.40
2019-03-04T13:02:25.181Z,0.80
2019-03-04T13:06:30.124Z,0.40
2019-03-04T13:10:35.030Z,0.75
2019-03-04T13:14:39.881Z,0.60
2019-03-04T13:18:44.719Z,0.90
2019-03-04T13:22:49.647Z,0.60
2019-03-04T13:26:54.592Z,0.60
2019-03-04T13:30:59.656Z,0.53
2019-03-04T13:35:05.283Z,0.40
2019-03-04T13:39:10.303Z,0.57
2019-03-04T13:43:15.348Z,0.30
2019-03-04T13:47:20.271Z,0.35
2019-03-04T13:51:25.264Z,0.28
2019-03-04T13:55:30.292Z,0.30
2019-03-04T13:59:35.281Z,0.50
2019-03-04T14:03:40.193Z,0.68
2019-03-04T14:07:45.214Z,0.65
2019-03-04T14:11:50.125Z,0.40
2019-03-04T14:15:55.052Z,0.20
2019-03-04T14:19:59.957Z,0.20
2019-03-04T14:24:07.543Z,0.70
2019-03-04T14:28:12.395Z,0.40
2019-03-04T14:32:17.332Z,0.47
2019-03-04T14:36:22.227Z,0.30
2019-03-04T14:40:28.120Z,0.40
2019-03-04T14:44:33.045Z,0.60
2019-03-04T14:48:37.961Z,0.30
2019-03-04T14:52:45.836Z,0.40
2019-03-04T14:56:50.772Z,0.42
2019-03-04T15:00:55.758Z,0.45
2019-03-04T15:05:00.692Z,0.40
2019-03-04T15:09:09.266Z,0.47
2019-03-04T15:13:14.866Z,0.70
2019-03-04T15:17:28.949Z,0.40
2019-03-04T15:21:33.820Z,0.70
2019-03-04T15:25:38.748Z,0.45
2019-03-04T15:29:43.657Z,0.65
2019-03-04T15:33:48.567Z,0.40
2019-03-04T15:37:53.525Z,0.50
2019-03-04T15:41:58.410Z,0.68
2019-03-04T15:46:03.386Z,0.90
2019-03-04T15:50:09.277Z,0.68
2019-03-04T15:54:14.245Z,0.93
2019-03-04T15:58:19.355Z,0.90
2019-03-04T16:02:24.136Z,1.10
2019-03-04T16:06:29.152Z,1.10
2019-03-04T16:10:35.729Z,1.00
2019-03-04T16:14:40.691Z,1.10
2019-03-04T16:18:48.340Z,1.30
2019-03-04T16:22:53.388Z,1.17
2019-03-04T16:27:05.488Z,1.10
2019-03-04T16:31:10.442Z,1.30
2019-03-04T16:35:15.432Z,1.25
2019-03-04T16:39:20.742Z,1.20
2019-03-04T16:43:25.577Z,0.90
2019-03-04T16:47:30.367Z,1.00
2019-03-04T16:51:35.266Z,0.80
2019-03-04T16:55:40.169Z,1.00
2019-03-04T16:59:45.127Z,1.00
2019-03-04T17:03:49.877Z,0.85
2019-03-04T17:07:54.654Z,1.15
2019-03-04T17:11:59.539Z,1.35
2019-03-04T17:16:04.460Z,0.75
2019-03-04T17:20:10.701Z,1.30
2019-03-04T17:24:15.989Z,0.82
2019-03-04T17:28:20.872Z,1.10
2019-03-04T17:32:25.836Z,1.17
2019-03-04T17:36:31.037Z,1.20
2019-03-04T17:40:35.920Z,1.22
2019-03-04T17:44:40.823Z,0.95
2019-03-04T17:48:45.640Z,0.93
2019-03-04T17:52:50.508Z,0.65
2019-03-04T17:56:55.387Z,1.27
2019-03-04T18:01:00.321Z,1.30
2019-03-04T18:05:05.931Z,1.45
2019-03-04T18:09:10.869Z,0.85
2019-03-04T18:13:16.058Z,0.93
2019-03-04T18:17:20.879Z,0.95
2019-03-04T18:21:25.756Z,0.78
2019-03-04T18:25:34.844Z,0.98
2019-03-04T18:30:18.834Z,0.35
2019-03-04T18:34:58.690Z,0.33
2019-03-04T18:39:31.033Z,0.78
2019-03-04T18:44:00.966Z,0.40
2019-03-04T18:48:46.319Z,0.65
2019-03-04T18:52:52.454Z,0.93
2019-03-04T18:56:57.577Z,1.00
2019-03-04T19:01:03.037Z,0.70
2019-03-04T19:05:08.436Z,1.00
2019-03-04T19:09:13.446Z,0.65
2019-03-04T19:13:18.636Z,0.80
2019-03-04T19:17:33.156Z,1.07
2019-03-04T19:21:30.514Z,0.72
2019-03-04T19:25:35.522Z,0.70
2019-03-04T19:29:40.436Z,0.65
2019-03-04T19:33:46.386Z,0.80
2019-03-04T19:37:51.311Z,0.68
2019-03-04T19:41:56.678Z,0.80
2019-03-04T19:46:01.611Z,0.68
2019-03-04T19:50:07.228Z,1.05
2019-03-04T19:54:12.697Z,0.80
2019-03-04T19:58:17.604Z,0.70
2019-03-04T20:02:22.738Z,0.85
2019-03-04T20:06:27.805Z,0.72
2019-03-04T20:10:32.767Z,0.75
2019-03-04T20:14:37.880Z,0.80
2019-03-04T20:18:42.757Z,0.60
2019-03-04T20:22:48.272Z,0.75
2019-03-04T20:26:53.187Z,0.60
2019-03-04T20:30:58.302Z,0.60
2019-03-04T20:35:03.250Z,0.50
2019-03-04T20:39:10.239Z,0.80
2019-03-04T20:43:15.403Z,0.65
2019-03-04T20:47:20.280Z,0.70
2019-03-04T20:51:25.257Z,0.70
2019-03-04T20:55:30.239Z,1.07
2019-03-04T20:59:35.026Z,0.85
2019-03-04T21:03:39.911Z,1.27
2019-03-04T21:07:44.764Z,1.10
2019-03-04T21:11:50.209Z,0.88
2019-03-04T21:15:55.316Z,1.40
2019-03-04T21:20:00.363Z,1.22
2019-03-04T21:24:05.797Z,1.00
2019-03-04T21:28:17.776Z,1.10
2019-03-04T21:32:47.450Z,1.02
2019-03-04T21:36:56.600Z,0.80
2019-03-04T21:41:23.126Z,1.07
2019-03-04T21:46:06.863Z,0.82
2019-03-04T21:50:14.393Z,0.93
2019-03-04T21:54:19.410Z,1.07
2019-03-04T21:58:24.278Z,0.80
2019-03-04T22:02:53.369Z,0.90
2019-03-04T22:06:58.443Z,1.00
2019-03-04T22:11:04.901Z,1.00
2019-03-04T22:15:10.787Z,1.00
2019-03-04T22:19:15.844Z,0.90
2019-03-04T22:23:20.830Z,1.17
2019-03-04T22:27:25.889Z,0.85
2019-03-04T22:31:30.936Z,1.02
2019-03-04T22:35:35.872Z,0.95
2019-03-04T22:39:41.790Z,1.17
2019-03-04T22:43:46.887Z,0.80
2019-03-04T22:47:51.786Z,1.10
2019-03-04T22:51:57.819Z,0.80
2019-03-04T22:56:02.656Z,0.90
2019-03-04T23:00:50.363Z,1.02
2019-03-04T23:05:07.642Z,0.95
2019-03-04T23:09:13.768Z,1.22
2019-03-04T23:14:09.017Z,1.10
2019-03-04T23:18:13.880Z,0.78
2019-03-04T23:22:19.023Z,0.80
2019-03-04T23:26:23.862Z,0.50
2019-03-04T23:30:29.197Z,0.90
2019-03-04T23:34:34.101Z,0.60
2019-03-04T23:38:39.011Z,0.70
2019-03-04T23:42:44.088Z,0.40
2019-03-04T23:46:48.912Z,0.53
2019-03-04T23:50:54.082Z,0.50
2019-03-04T23:54:58.850Z,0.72
2019-03-04T23:59:03.758Z,0.40
